Time;durP1;ratioP1;P1;durP2;ratioP2;P2;SDS_P1;SDS_P2;PMS_P1;PMS_P2;Temp;Humidity;BMP_temperature;BMP_pressure;BME280_temperature;BME280_humidity;BME280_pressure;Samples;Min_cycle;Max_cycle;Signal;HPM_P1;HPM_P2
2022/10/05 00:00:27;;;;;;;8.48;5.40;;;15.30;58.30;;;;;;4924542;29;20052;-42
2022/10/05 00:02:55;;;;;;;10.60;5.60;;;15.20;58.30;;;;;;4928582;29;20056;-40
2022/10/05 00:05:29;;;;;;;9.98;5.70;;;15.20;58.30;;;;;;4922382;29;20134;-45
2022/10/05 00:08:08;;;;;;;9.68;5.78;;;15.20;58.30;;;;;;4927524;29;20063;-47
2022/10/05 00:10:35;;;;;;;11.25;5.93;;;15.20;58.40;;;;;;4925857;29;20052;-47
2022/10/05 00:13:05;;;;;;;8.15;5.90;;;15.20;58.40;;;;;;4927272;29;20051;-42
2022/10/05 00:15:33;;;;;;;9.35;5.93;;;15.10;58.40;;;;;;4919373;29;20051;-41
2022/10/05 00:18:02;;;;;;;9.40;5.38;;;15.10;58.40;;;;;;4927260;29;20060;-41
2022/10/05 00:20:29;;;;;;;10.73;5.78;;;15.10;58.40;;;;;;4926553;29;20051;-42
2022/10/05 00:23:04;;;;;;;10.27;6.45;;;15.10;58.40;;;;;;4924744;29;20059;-43
2022/10/05 00:25:31;;;;;;;;;;;15.10;58.50;;;;;;4923156;29;21580;-41
2022/10/05 00:28:00;;;;;;;11.10;6.60;;;15.10;58.50;;;;;;4926334;29;19927;-43
2022/10/05 00:30:32;;;;;;;8.65;5.53;;;15.10;58.30;;;;;;4921786;29;20047;-47
2022/10/05 00:32:59;;;;;;;7.93;5.63;;;15.10;58.40;;;;;;4926293;29;20063;-48
2022/10/05 00:35:29;;;;;;;9.40;6.18;;;15.00;58.40;;;;;;4923739;29;20507;-46
2022/10/05 00:37:58;;;;;;;12.57;6.57;;;15.10;58.60;;;;;;4927754;29;20059;-43
2022/10/05 00:40:35;;;;;;;9.40;5.90;;;15.00;58.60;;;;;;4927456;29;20411;-43
2022/10/05 00:43:16;;;;;;;11.52;6.00;;;15.00;58.70;;;;;;4925499;29;20074;-41
2022/10/05 00:45:48;;;;;;;8.55;5.13;;;15.00;58.80;;;;;;4919093;29;20062;-46
2022/10/05 00:48:24;;;;;;;12.85;6.38;;;15.00;58.80;;;;;;4927577;29;20060;-41
2022/10/05 00:51:15;;;;;;;8.18;5.85;;;15.00;58.80;;;;;;4924243;29;20353;-42
2022/10/05 00:53:50;;;;;;;8.95;6.00;;;15.00;58.80;;;;;;4926970;29;20500;-46
2022/10/05 00:56:32;;;;;;;12.23;6.88;;;14.90;58.70;;;;;;4922242;29;20047;-43
2022/10/05 00:59:12;;;;;;;9.20;6.40;;;14.90;58.70;;;;;;4925122;29;20060;-43
2022/10/05 01:01:44;;;;;;;12.48;6.30;;;14.90;58.70;;;;;;4925435;29;20051;-45
2022/10/05 01:04:19;;;;;;;10.65;6.63;;;14.90;58.70;;;;;;4926714;29;20055;-44
2022/10/05 01:06:59;;;;;;;14.02;6.47;;;14.90;59.20;;;;;;4921928;29;20513;-43
2022/10/05 01:09:38;;;;;;;15.27;7.18;;;14.80;58.70;;;;;;4926088;29;20052;-44
2022/10/05 01:12:11;;;;;;;9.45;6.70;;;14.80;58.80;;;;;;4927147;29;20511;-43
2022/10/05 01:14:47;;;;;;;11.00;6.50;;;14.80;58.70;;;;;;4924669;29;20055;-43
2022/10/05 01:17:21;;;;;;;14.35;6.72;;;14.80;58.80;;;;;;4920060;29;20488;-46
2022/10/05 01:19:58;;;;;;;;;;;14.70;58.80;;;;;;4928041;29;20546;-41
2022/10/05 01:22:41;;;;;;;9.25;6.72;;;14.80;58.90;;;;;;4926505;29;19930;-42
2022/10/05 01:25:23;;;;;;;11.05;6.38;;;14.80;58.70;;;;;;4925231;29;20060;-43
2022/10/05 01:28:03;;;;;;;9.95;6.25;;;14.70;58.80;;;;;;4924400;29;20070;-43
2022/10/05 01:30:37;;;;;;;12.38;6.70;;;14.70;59.00;;;;;;4921530;29;20052;-43
2022/10/05 01:33:14;;;;;;;8.65;6.18;;;14.70;59.00;;;;;;4925732;29;20055;-41
2022/10/05 01:35:51;;;;;;;9.15;6.28;;;14.70;59.10;;;;;;4921986;29;21439;-45
2022/10/05 01:38:32;;;;;;;10.52;6.35;;;14.70;59.20;;;;;;4919165;29;20098;-41
2022/10/05 01:41:09;;;;;;;9.65;6.28;;;14.70;59.70;;;;;;4925942;29;20059;-42
2022/10/05 01:43:44;;;;;;;8.43;6.30;;;14.70;59.30;;;;;;4920453;29;20075;-49
2022/10/05 01:46:24;;;;;;;7.18;5.85;;;14.60;59.30;;;;;;4919002;29;20594;-43
2022/10/05 01:49:04;;;;;;;8.45;6.57;;;14.60;59.30;;;;;;4922502;29;21643;-41
2022/10/05 01:51:41;;;;;;;8.95;6.22;;;14.60;59.30;;;;;;4925799;29;20059;-47
2022/10/05 01:54:19;;;;;;;9.10;6.18;;;14.60;59.40;;;;;;4926459;29;20058;-40
2022/10/05 01:56:56;;;;;;;9.15;6.45;;;14.60;59.40;;;;;;4923089;29;20063;-41
2022/10/05 01:59:36;;;;;;;11.95;6.68;;;14.60;59.40;;;;;;4924101;29;20051;-40
2022/10/05 02:02:06;;;;;;;8.93;6.13;;;14.60;59.40;;;;;;4922649;29;20056;-44
2022/10/05 02:04:37;;;;;;;8.57;6.25;;;14.60;59.40;;;;;;4924017;29;20052;-44
2022/10/05 02:07:12;;;;;;;10.68;7.05;;;14.60;59.40;;;;;;4919278;29;20055;-42
2022/10/05 02:09:45;;;;;;;10.38;7.00;;;14.60;59.40;;;;;;4925270;29;20055;-46
2022/10/05 02:16:14;;;;;;;9.77;6.50;;;14.60;59.50;;;;;;4923307;29;20046;-44
2022/10/05 02:22:07;;;;;;;13.13;6.93;;;14.60;59.50;;;;;;4921400;29;20046;-43
2022/10/05 02:24:39;;;;;;;9.60;6.97;;;14.60;59.50;;;;;;4923118;29;20056;-43
2022/10/05 02:27:08;;;;;;;8.98;6.60;;;14.60;59.50;;;;;;4919595;29;20055;-42
2022/10/05 02:29:39;;;;;;;11.07;6.20;;;14.60;59.50;;;;;;4918797;29;20444;-42
2022/10/05 02:32:13;;;;;;;8.80;6.45;;;14.60;59.60;;;;;;4921848;29;20044;-43
2022/10/05 02:34:42;;;;;;;11.25;7.18;;;14.50;59.60;;;;;;4920697;29;20409;-45
2022/10/05 02:37:21;;;;;;;10.88;7.25;;;14.50;59.60;;;;;;4921138;29;20051;-44
2022/10/05 02:40:04;;;;;;;12.77;7.47;;;14.50;59.80;;;;;;4922331;29;20064;-44
2022/10/05 02:42:43;;;;;;;12.57;7.13;;;14.50;59.80;;;;;;4921308;29;20051;-43
2022/10/05 02:45:20;;;;;;;10.70;7.03;;;14.50;59.80;;;;;;4922608;29;20044;-41
2022/10/05 02:47:58;;;;;;;10.57;7.28;;;14.50;59.80;;;;;;4921573;29;20055;-45
2022/10/05 02:50:34;;;;;;;11.27;7.22;;;14.50;60.10;;;;;;4921403;29;20059;-43
2022/10/05 02:53:13;;;;;;;12.80;8.75;;;14.50;59.80;;;;;;4921116;29;20472;-45
2022/10/05 02:55:49;;;;;;;11.98;7.07;;;14.50;59.80;;;;;;4920394;29;20067;-44
2022/10/05 02:58:22;;;;;;;9.32;6.78;;;14.50;59.90;;;;;;4922678;29;20522;-42
2022/10/05 03:00:56;;;;;;;10.95;7.07;;;14.50;59.80;;;;;;4919126;29;20497;-40
2022/10/05 03:03:33;;;;;;;8.23;6.25;;;14.50;59.90;;;;;;4920516;29;20492;-44
2022/10/05 03:06:02;;;;;;;10.57;7.07;;;14.50;59.90;;;;;;4921035;29;20048;-45
2022/10/05 03:08:36;;;;;;;12.57;7.97;;;14.50;59.90;;;;;;4921159;29;20059;-44
2022/10/05 03:11:14;;;;;;;11.73;7.75;;;14.50;59.90;;;;;;4923873;29;20060;-47
2022/10/05 03:13:47;;;;;;;14.13;8.40;;;14.50;59.90;;;;;;4923989;29;20063;-41
2022/10/05 03:16:38;;;;;;;12.60;8.02;;;14.50;60.00;;;;;;4926328;29;20082;-42
2022/10/05 03:19:18;;;;;;;10.77;7.75;;;14.40;60.00;;;;;;4926270;29;20055;-41
2022/10/05 03:21:56;;;;;;;10.10;6.90;;;14.40;59.90;;;;;;4925640;29;20059;-41
2022/10/05 03:24:35;;;;;;;11.32;7.43;;;14.40;59.90;;;;;;4925050;29;20059;-44
2022/10/05 03:27:10;;;;;;;12.48;6.82;;;14.40;60.50;;;;;;4925605;29;20060;-45
2022/10/05 03:29:43;;;;;;;12.75;8.15;;;14.40;59.90;;;;;;4922456;29;20070;-43
2022/10/05 03:32:21;;;;;;;8.77;6.78;;;14.40;60.00;;;;;;4926557;29;20412;-43
2022/10/05 03:34:57;;;;;;;10.77;7.65;;;14.40;60.00;;;;;;4925712;29;20431;-41
2022/10/05 03:37:30;;;;;;;9.60;7.00;;;14.40;60.00;;;;;;4923954;29;20067;-41
2022/10/05 03:40:04;;;;;;;8.02;6.22;;;14.40;60.00;;;;;;4924956;29;20063;-42
2022/10/05 03:42:38;;;;;;;10.65;7.65;;;14.30;59.90;;;;;;4925462;29;20055;-47
2022/10/05 03:45:09;;;;;;;;;;;14.30;59.90;;;;;;4921528;29;20043;-44
2022/10/05 03:47:45;;;;;;;8.10;6.45;;;14.30;59.90;;;;;;4919442;29;19930;-42
2022/10/05 03:50:31;;;;;;;8.02;6.18;;;14.30;59.70;;;;;;4922145;29;20059;-43
2022/10/05 03:53:04;;;;;;;11.43;7.65;;;14.30;59.70;;;;;;4925598;29;20522;-42
2022/10/05 03:55:39;;;;;;;9.35;7.05;;;14.30;59.70;;;;;;4919184;29;20066;-47
2022/10/05 03:58:14;;;;;;;10.02;6.75;;;14.30;59.70;;;;;;4924047;29;20499;-44
2022/10/05 04:00:44;;;;;;;9.50;6.20;;;14.20;59.60;;;;;;4924964;29;20586;-44
2022/10/05 04:03:16;;;;;;;10.77;6.85;;;14.20;59.70;;;;;;4926682;29;20056;-42
2022/10/05 04:05:49;;;;;;;9.10;6.22;;;14.20;59.70;;;;;;4924774;29;20059;-42
2022/10/05 04:08:23;;;;;;;9.40;6.15;;;14.20;59.70;;;;;;4923393;29;20055;-41
2022/10/05 04:10:54;;;;;;;8.93;6.35;;;14.20;59.80;;;;;;4922336;29;20052;-43
2022/10/05 04:13:27;;;;;;;9.77;6.30;;;14.10;59.80;;;;;;4925330;29;20044;-41
2022/10/05 04:16:00;;;;;;;13.63;7.60;;;14.10;59.80;;;;;;4923421;29;20539;-42
2022/10/05 04:18:30;;;;;;;8.98;5.80;;;14.10;59.80;;;;;;4924492;29;20056;-44
2022/10/05 04:21:04;;;;;;;9.02;5.90;;;14.10;59.90;;;;;;4923602;29;20051;-41
2022/10/05 04:23:42;;;;;;;8.52;5.53;;;14.10;59.90;;;;;;4924669;29;20051;-46
2022/10/05 04:26:12;;;;;;;6.40;5.25;;;14.10;60.00;;;;;;4916312;29;20513;-43
2022/10/05 04:28:52;;;;;;;13.45;8.50;;;14.10;60.00;;;;;;4925160;29;20066;-42
2022/10/05 04:31:39;;;;;;;9.38;6.50;;;14.10;60.10;;;;;;4920077;29;20072;-43
2022/10/05 04:34:17;;;;;;;9.15;5.97;;;14.10;60.10;;;;;;4924702;29;20051;-41
2022/10/05 04:36:55;;;;;;;10.00;6.53;;;14.10;60.00;;;;;;4923110;29;20059;-44
2022/10/05 04:39:34;;;;;;;7.70;5.55;;;14.10;60.20;;;;;;4923117;29;20393;-43
2022/10/05 04:42:10;;;;;;;10.02;5.53;;;14.00;60.10;;;;;;4918612;29;20496;-43
2022/10/05 04:45:08;;;;;;;6.18;5.07;;;14.00;60.20;;;;;;4917424;29;20059;-41
2022/10/05 04:47:58;;;;;;;10.30;5.65;;;14.10;60.40;;;;;;4915581;29;20062;-43
2022/10/05 04:50:37;;;;;;;7.13;5.40;;;14.00;60.40;;;;;;4917096;29;20070;-44
2022/10/05 04:53:14;;;;;;;9.38;4.80;;;14.00;60.50;;;;;;4915977;29;20811;-40
2022/10/05 04:55:53;;;;;;;8.20;5.03;;;14.00;60.50;;;;;;4911636;29;20055;-40
2022/10/05 04:58:33;;;;;;;8.00;5.78;;;14.00;60.70;;;;;;4913246;29;20056;-41
2022/10/05 05:01:12;;;;;;;10.77;6.22;;;14.00;60.70;;;;;;4918334;29;20070;-44
2022/10/05 05:03:57;;;;;;;10.85;6.47;;;14.00;60.80;;;;;;4913546;29;21240;-48
2022/10/05 05:06:34;;;;;;;15.30;6.28;;;14.00;60.90;;;;;;4916161;29;20063;-45
2022/10/05 05:09:26;;;;;;;9.57;5.53;;;14.00;61.00;;;;;;4914895;29;20357;-43
2022/10/05 05:12:03;;;;;;;9.75;5.35;;;14.00;61.20;;;;;;4916455;29;20511;-41
2022/10/05 05:15:02;;;;;;;8.88;5.60;;;14.00;61.10;;;;;;4915181;29;20208;-42
2022/10/05 05:17:47;;;;;;;7.70;4.95;;;14.00;61.40;;;;;;4918815;29;20399;-45
2022/10/05 05:20:22;;;;;;;7.20;4.28;;;14.00;61.30;;;;;;4917514;29;20048;-43
2022/10/05 05:22:55;;;;;;;7.88;5.43;;;14.00;61.20;;;;;;4922437;29;20078;-41
2022/10/05 05:25:36;;;;;;;6.77;4.60;;;14.00;61.30;;;;;;4916874;29;20055;-42
2022/10/05 05:28:16;;;;;;;7.55;4.93;;;14.00;61.70;;;;;;4915789;29;20499;-42
2022/10/05 05:30:49;;;;;;;6.40;4.60;;;14.10;61.40;;;;;;4915816;29;20068;-42
2022/10/05 05:33:21;;;;;;;7.13;4.85;;;14.10;61.30;;;;;;4919084;29;20606;-43
2022/10/05 05:36:25;;;;;;;6.50;5.10;;;14.00;61.30;;;;;;4921186;29;20510;-42
2022/10/05 05:39:03;;;;;;;7.63;5.00;;;14.00;61.40;;;;;;4915628;29;20055;-41
2022/10/05 05:41:37;;;;;;;6.85;5.18;;;14.10;61.30;;;;;;4917836;29;20054;-47
2022/10/05 05:44:17;;;;;;;6.28;4.95;;;14.10;61.20;;;;;;4917282;29;21096;-42
2022/10/05 05:46:53;;;;;;;7.22;5.30;;;14.10;61.30;;;;;;4915289;29;20423;-42
2022/10/05 05:49:27;;;;;;;6.93;5.53;;;14.10;61.10;;;;;;4916763;29;20051;-41
2022/10/05 05:51:58;;;;;;;8.40;5.57;;;14.10;61.00;;;;;;4914882;29;20063;-41
2022/10/05 05:54:31;;;;;;;7.25;5.28;;;14.10;60.80;;;;;;4921791;29;20043;-42
2022/10/05 05:57:09;;;;;;;8.52;5.38;;;14.10;60.70;;;;;;4914055;29;20064;-42
2022/10/05 05:59:52;;;;;;;9.18;5.82;;;14.10;60.70;;;;;;4920808;29;20412;-42
2022/10/05 06:02:23;;;;;;;5.95;4.53;;;14.00;60.60;;;;;;4913953;29;20059;-41
2022/10/05 06:04:54;;;;;;;6.55;5.32;;;14.10;60.70;;;;;;4919371;29;20581;-42
2022/10/05 06:07:27;;;;;;;6.65;4.40;;;14.10;60.70;;;;;;4913329;29;20063;-45
2022/10/05 06:09:58;;;;;;;7.30;5.82;;;14.00;60.80;;;;;;4915245;29;20056;-41
2022/10/05 06:12:32;;;;;;;8.27;5.40;;;14.00;60.80;;;;;;4912945;29;20150;-46
2022/10/05 06:15:04;;;;;;;6.68;5.40;;;14.00;61.00;;;;;;4918848;29;20059;-43
2022/10/05 06:17:38;;;;;;;10.02;6.03;;;14.10;61.10;;;;;;4914426;29;20503;-44
2022/10/05 06:20:16;;;;;;;8.30;5.60;;;14.10;61.30;;;;;;4919599;29;20408;-44
2022/10/05 06:22:46;;;;;;;8.80;5.88;;;14.10;61.40;;;;;;4921461;29;20420;-40
2022/10/05 06:25:24;;;;;;;7.07;5.45;;;14.10;61.50;;;;;;4916515;29;20055;-41
2022/10/05 06:28:03;;;;;;;9.43;5.25;;;14.10;61.70;;;;;;4911907;29;20378;-42
2022/10/05 06:30:39;;;;;;;8.40;5.90;;;14.10;61.80;;;;;;4914692;29;20071;-44
2022/10/05 06:33:26;;;;;;;8.35;5.70;;;14.10;61.90;;;;;;4918349;29;20432;-42
2022/10/05 06:36:11;;;;;;;11.63;7.38;;;14.10;62.10;;;;;;4913625;29;20051;-42
2022/10/05 06:38:57;;;;;;;9.15;6.80;;;14.10;62.40;;;;;;4917636;29;20060;-43
2022/10/05 06:41:39;;;;;;;11.13;6.75;;;14.20;62.50;;;;;;4916726;29;20391;-42
2022/10/05 06:44:13;;;;;;;13.95;8.65;;;14.20;62.50;;;;;;4916782;29;20062;-44
2022/10/05 06:46:53;;;;;;;14.30;8.13;;;14.20;62.60;;;;;;4915096;29;20056;-44
2022/10/05 06:49:24;;;;;;;10.93;7.72;;;14.30;62.90;;;;;;4918854;29;20067;-42
2022/10/05 06:51:56;;;;;;;12.95;8.10;;;14.30;62.80;;;;;;4920099;29;20519;-46
2022/10/05 06:54:44;;;;;;;11.25;8.07;;;14.30;63.10;;;;;;4919098;29;20048;-43
2022/10/05 06:57:28;;;;;;;14.05;8.23;;;14.30;63.20;;;;;;4918535;29;20040;-43
2022/10/05 06:59:59;;;;;;;;;;;14.40;63.40;;;;;;4917029;29;20059;-43
2022/10/05 07:02:36;;;;;;;12.00;8.27;;;14.50;63.30;;;;;;4920599;29;19930;-44
2022/10/05 07:05:45;;;;;;;8.73;6.97;;;14.50;63.10;;;;;;4919846;29;20500;-43
2022/10/05 07:08:16;;;;;;;9.32;7.20;;;14.50;63.30;;;;;;4913394;29;20051;-42
2022/10/05 07:10:59;;;;;;;9.48;7.40;;;14.50;63.20;;;;;;4917327;29;20056;-42
2022/10/05 07:13:55;;;;;;;12.13;8.00;;;14.60;63.40;;;;;;4916731;29;20055;-42
2022/10/05 07:16:36;;;;;;;13.25;8.75;;;14.60;63.80;;;;;;4921115;29;20436;-41
2022/10/05 07:19:15;;;;;;;13.48;9.63;;;14.70;64.00;;;;;;4922099;29;20048;-43
2022/10/05 07:21:51;;;;;;;23.77;10.02;;;14.70;64.00;;;;;;4926051;29;20055;-41
2022/10/05 07:24:30;;;;;;;17.08;11.68;;;14.70;64.10;;;;;;4918483;29;20665;-42
2022/10/05 07:27:05;;;;;;;14.30;10.30;;;14.70;64.00;;;;;;4919726;29;20530;-46
2022/10/05 07:29:38;;;;;;;14.77;9.57;;;14.80;63.90;;;;;;4919697;29;20641;-44
2022/10/05 07:32:19;;;;;;;13.15;9.38;;;14.80;63.80;;;;;;4919923;29;20063;-45
2022/10/05 07:34:59;;;;;;;13.27;9.80;;;14.80;63.70;;;;;;4915222;29;20133;-43
2022/10/05 07:40:23;;;;;;;13.02;9.23;;;14.90;63.60;;;;;;4923722;29;20063;-44
2022/10/05 07:43:01;;;;;;;14.63;10.20;;;15.00;63.50;;;;;;4920466;29;20059;-43
2022/10/05 07:45:33;;;;;;;15.00;10.15;;;15.00;64.30;;;;;;4914767;29;20052;-42
2022/10/05 07:48:12;;;;;;;13.30;9.07;;;15.00;63.50;;;;;;4923819;29;20063;-44
2022/10/05 07:50:50;;;;;;;14.73;10.73;;;15.10;63.80;;;;;;4923179;29;20048;-40
2022/10/05 07:53:21;;;;;;;12.70;9.65;;;15.10;63.70;;;;;;4915763;29;20055;-43
2022/10/05 07:55:52;;;;;;;18.23;10.70;;;15.10;63.80;;;;;;4923041;29;20044;-43
2022/10/05 07:58:26;;;;;;;18.60;11.43;;;15.20;63.80;;;;;;4922085;29;20083;-43
2022/10/05 08:01:04;;;;;;;13.98;9.45;;;15.20;64.00;;;;;;4922958;28;20051;-49
2022/10/05 08:03:42;;;;;;;15.50;10.32;;;15.20;63.90;;;;;;4917703;29;20060;-42
2022/10/05 08:06:16;;;;;;;14.30;9.95;;;15.30;64.10;;;;;;4919954;29;20051;-42
2022/10/05 08:08:50;;;;;;;13.10;9.35;;;15.30;64.20;;;;;;4921571;29;20055;-46
2022/10/05 08:11:24;;;;;;;16.77;10.07;;;15.40;64.20;;;;;;4920478;29;20059;-43
2022/10/05 08:13:54;;;;;;;16.17;9.20;;;15.40;64.20;;;;;;4918337;29;20081;-45
2022/10/05 08:16:26;;;;;;;15.13;9.43;;;15.50;64.20;;;;;;4919679;29;20059;-46
2022/10/05 08:19:00;;;;;;;23.48;13.90;;;15.50;64.40;;;;;;4919590;29;20056;-42
2022/10/05 08:21:33;;;;;;;22.58;14.02;;;15.50;64.30;;;;;;4925650;29;20082;-45
2022/10/05 08:24:06;;;;;;;16.00;10.77;;;15.60;64.40;;;;;;4927795;29;20052;-42
2022/10/05 08:26:42;;;;;;;14.77;10.45;;;15.60;64.30;;;;;;4922429;29;20416;-41
2022/10/05 08:29:17;;;;;;;14.60;9.60;;;15.70;64.40;;;;;;4926067;29;20090;-45
2022/10/05 08:31:48;;;;;;;12.52;9.23;;;15.70;64.40;;;;;;4923526;29;20136;-45
2022/10/05 08:34:29;;;;;;;15.40;9.68;;;15.80;64.30;;;;;;4927001;29;20055;-41
2022/10/05 08:37:03;;;;;;;18.92;9.90;;;15.80;64.50;;;;;;4923063;29;20060;-43
2022/10/05 08:39:37;;;;;;;12.20;8.68;;;15.80;64.40;;;;;;4923699;29;20071;-42
2022/10/05 08:42:29;;;;;;;13.77;8.20;;;15.90;64.40;;;;;;4926533;29;20523;-40
2022/10/05 08:45:16;;;;;;;11.63;8.45;;;15.90;64.40;;;;;;4918656;29;20051;-42
2022/10/05 08:48:09;;;;;;;12.90;7.43;;;16.00;64.40;;;;;;4924143;29;20070;-44
2022/10/05 08:51:09;;;;;;;16.80;9.23;;;16.10;64.60;;;;;;4925824;29;20423;-43
2022/10/05 08:54:04;;;;;;;10.80;6.82;;;16.10;65.50;;;;;;4891119;29;20187;-42
2022/10/05 08:56:40;;;;;;;9.90;7.10;;;16.20;65.00;;;;;;4918537;29;20064;-46
2022/10/05 08:59:35;;;;;;;17.60;10.63;;;16.20;65.00;;;;;;4921087;29;20067;-43
2022/10/05 09:02:23;;;;;;;14.38;9.07;;;16.30;65.20;;;;;;4918527;29;20075;-42
2022/10/05 09:05:08;;;;;;;10.23;6.88;;;16.40;65.20;;;;;;4922613;29;20051;-46
2022/10/05 09:07:57;;;;;;;13.23;6.40;;;16.40;65.30;;;;;;4924453;29;20063;-41
2022/10/05 09:10:58;;;;;;;7.50;5.45;;;16.50;65.60;;;;;;4922262;29;20047;-43
2022/10/05 09:13:53;;;;;;;7.75;5.45;;;16.50;65.90;;;;;;4921864;29;20512;-43
2022/10/05 09:16:46;;;;;;;8.60;5.78;;;16.60;66.00;;;;;;4919736;29;20055;-43
2022/10/05 09:19:55;;;;;;;10.63;5.80;;;16.70;66.00;;;;;;4926004;29;20526;-42
2022/10/05 09:22:36;;;;;;;7.53;5.07;;;16.80;66.00;;;;;;4927307;29;20060;-42
2022/10/05 09:25:18;;;;;;;12.27;5.60;;;16.90;65.60;;;;;;4925059;29;20082;-42
2022/10/05 09:27:54;;;;;;;8.73;5.13;;;17.00;65.40;;;;;;4925743;29;20066;-41
2022/10/05 09:30:26;;;;;;;8.15;5.35;;;17.00;65.20;;;;;;4922845;29;20099;-43
2022/10/05 09:33:32;;;;;;;8.48;4.85;;;17.10;65.00;;;;;;4921734;29;20047;-42
2022/10/05 09:36:22;;;;;;;7.70;5.22;;;17.20;65.20;;;;;;4922522;29;20074;-42
2022/10/05 09:39:31;;;;;;;7.03;4.93;;;17.30;65.00;;;;;;4919757;29;20500;-45
2022/10/05 09:42:31;;;;;;;7.68;4.28;;;17.30;64.80;;;;;;4918876;29;20059;-42
2022/10/05 09:45:44;;;;;;;6.93;4.97;;;17.40;64.60;;;;;;4922098;29;20051;-43
2022/10/05 09:48:46;;;;;;;6.70;3.75;;;17.40;64.50;;;;;;4920683;29;20059;-46
2022/10/05 09:51:57;;;;;;;7.68;4.20;;;17.50;64.40;;;;;;4919849;29;20059;-41
2022/10/05 09:55:05;;;;;;;5.18;3.92;;;17.60;64.40;;;;;;4922667;29;20058;-44
2022/10/05 09:58:06;;;;;;;5.30;4.00;;;17.60;64.00;;;;;;4924161;29;20428;-44
2022/10/05 10:00:48;;;;;;;5.28;4.20;;;17.70;63.90;;;;;;4914204;29;20074;-47
2022/10/05 10:03:55;;;;;;;4.85;3.47;;;17.70;63.80;;;;;;4923958;29;20056;-44
2022/10/05 10:06:42;;;;;;;4.90;3.65;;;17.80;63.90;;;;;;4920820;29;20052;-41
2022/10/05 10:09:24;;;;;;;6.05;3.58;;;17.90;63.80;;;;;;4922331;29;20063;-45
2022/10/05 10:12:17;;;;;;;7.63;3.75;;;17.90;63.90;;;;;;4923862;29;20070;-42
2022/10/05 10:15:18;;;;;;;5.50;3.65;;;17.90;63.90;;;;;;4920711;29;20516;-44
2022/10/05 10:18:17;;;;;;;5.70;3.05;;;18.00;63.80;;;;;;4922326;29;20518;-43
2022/10/05 10:21:00;;;;;;;5.40;2.63;;;18.00;63.30;;;;;;4903367;29;20064;-45
2022/10/05 10:23:48;;;;;;;8.43;2.80;;;18.10;62.50;;;;;;4921947;29;20064;-46
2022/10/05 10:26:40;;;;;;;4.18;2.20;;;18.10;62.50;;;;;;4926025;29;20055;-48
2022/10/05 10:29:35;;;;;;;2.00;1.80;;;18.20;62.20;;;;;;4928380;29;20048;-51
2022/10/05 10:32:19;;;;;;;2.85;1.90;;;18.20;61.70;;;;;;4926168;29;20059;-46
2022/10/05 10:35:08;;;;;;;3.20;2.10;;;18.30;61.90;;;;;;4927330;29;20051;-47
2022/10/05 10:38:02;;;;;;;2.80;1.92;;;18.30;61.40;;;;;;4929195;29;20055;-46
2022/10/05 10:40:41;;;;;;;3.08;2.17;;;18.40;61.30;;;;;;4922274;29;20428;-48
2022/10/05 10:43:42;;;;;;;3.35;2.25;;;18.40;61.10;;;;;;4925640;29;20059;-53
2022/10/05 10:46:20;;;;;;;3.60;2.10;;;18.40;60.50;;;;;;4919500;29;20063;-48
2022/10/05 10:48:57;;;;;;;3.15;2.20;;;18.50;60.20;;;;;;4924201;29;20531;-54
2022/10/05 10:51:57;;;;;;;4.28;2.17;;;18.50;60.20;;;;;;4926256;29;20067;-48
2022/10/05 10:55:03;;;;;;;2.88;2.08;;;18.50;59.90;;;;;;4928419;29;20067;-48
2022/10/05 10:57:45;;;;;;;9.40;2.33;;;18.50;59.90;;;;;;4929659;29;20048;-48
2022/10/05 11:00:27;;;;;;;22.65;4.65;;;18.60;59.80;;;;;;4921862;29;20051;-52
2022/10/05 11:03:28;;;;;;;20.45;4.45;;;18.60;59.50;;;;;;4925157;29;20059;-48
2022/10/05 11:06:35;;;;;;;20.75;3.72;;;18.60;59.30;;;;;;4921988;29;20044;-49
2022/10/05 11:09:41;;;;;;;28.65;4.57;;;18.60;59.20;;;;;;4926456;29;20059;-49
2022/10/05 11:12:43;;;;;;;4.53;1.73;;;18.70;59.10;;;;;;4885171;29;20427;-47
2022/10/05 11:15:43;;;;;;;3.42;1.77;;;18.80;59.10;;;;;;4922535;29;20066;-50
2022/10/05 11:18:19;;;;;;;5.35;1.95;;;18.80;59.10;;;;;;4927723;29;20063;-46
2022/10/05 11:21:18;;;;;;;5.18;1.90;;;18.80;58.90;;;;;;4923939;29;20056;-49
2022/10/05 11:24:11;;;;;;;7.22;1.70;;;18.90;58.50;;;;;;4923441;29;20059;-47
2022/10/05 11:26:58;;;;;;;3.67;1.77;;;18.90;58.00;;;;;;4925831;29;20063;-50
2022/10/05 11:30:02;;;;;;;5.85;1.98;;;19.00;58.00;;;;;;4924092;29;20055;-49
2022/10/05 11:33:00;;;;;;;7.32;2.08;;;19.00;57.90;;;;;;4923353;29;20059;-49
2022/10/05 11:35:50;;;;;;;6.07;1.70;;;19.00;57.60;;;;;;4924542;29;20066;-49
2022/10/05 11:38:42;;;;;;;2.95;1.52;;;19.10;57.60;;;;;;4927136;29;20419;-50
2022/10/05 11:41:28;;;;;;;3.67;1.58;;;19.10;57.40;;;;;;4923935;29;20058;-50
2022/10/05 11:44:18;;;;;;;3.70;1.48;;;19.20;56.90;;;;;;4924660;29;20059;-49
2022/10/05 11:46:51;;;;;;;4.00;1.40;;;19.20;56.90;;;;;;4920741;29;20052;-54
2022/10/05 11:49:30;;;;;;;2.77;1.60;;;19.30;56.70;;;;;;4922515;29;20511;-52
2022/10/05 11:52:06;;;;;;;2.20;1.42;;;19.30;56.70;;;;;;4926402;29;20056;-50
2022/10/05 11:54:50;;;;;;;2.85;1.40;;;19.30;56.10;;;;;;4921255;29;20054;-52
2022/10/05 11:57:24;;;;;;;3.10;1.47;;;19.40;56.00;;;;;;4923912;29;20054;-54
2022/10/05 11:59:56;;;;;;;;;;;19.40;56.10;;;;;;4926950;29;20059;-54
2022/10/05 12:02:53;;;;;;;4.25;1.50;;;19.50;56.40;;;;;;4927271;29;19922;-54
2022/10/05 12:05:25;;;;;;;4.07;1.60;;;19.60;55.80;;;;;;4918604;29;20062;-52
2022/10/05 12:08:05;;;;;;;2.40;1.70;;;19.60;55.70;;;;;;4926621;29;20064;-54
2022/10/05 12:10:43;;;;;;;1.95;1.50;;;19.70;55.40;;;;;;4927948;29;20404;-51
2022/10/05 12:13:19;;;;;;;2.33;1.80;;;19.80;55.50;;;;;;4923167;29;20055;-54
2022/10/05 12:15:55;;;;;;;3.08;1.33;;;19.70;55.50;;;;;;4921743;29;20055;-51
2022/10/05 12:18:42;;;;;;;2.42;1.35;;;19.80;55.70;;;;;;4926375;29;20056;-52
2022/10/05 12:21:17;;;;;;;1.83;1.42;;;19.90;55.80;;;;;;4921281;29;20075;-53
2022/10/05 12:23:50;;;;;;;3.22;1.50;;;19.90;55.50;;;;;;4919487;29;20500;-53
2022/10/05 12:26:24;;;;;;;1.70;1.50;;;20.00;55.50;;;;;;4927922;29;20125;-51
2022/10/05 12:28:53;;;;;;;;;;;20.00;55.20;;;;;;4928047;29;20615;-54
2022/10/05 12:31:35;;;;;;;2.58;1.50;;;20.20;55.50;;;;;;4923205;29;19927;-52
2022/10/05 12:34:08;;;;;;;2.90;1.65;;;20.20;55.00;;;;;;4915144;29;20071;-43
2022/10/05 12:36:41;;;;;;;3.05;1.10;;;20.20;54.70;;;;;;4915407;29;20538;-54
2022/10/05 12:39:17;;;;;;;1.52;1.33;;;20.30;54.40;;;;;;4915100;29;20234;-52
2022/10/05 12:41:52;;;;;;;4.55;1.30;;;20.30;54.40;;;;;;4916405;29;20055;-51
2022/10/05 12:44:38;;;;;;;2.35;1.42;;;20.40;54.10;;;;;;4921068;29;20059;-45
2022/10/05 12:47:17;;;;;;;8.32;1.40;;;20.40;53.30;;;;;;4926658;29;20063;-51
2022/10/05 12:50:03;;;;;;;3.67;1.50;;;20.40;52.80;;;;;;4927453;29;20083;-52
2022/10/05 12:53:01;;;;;;;1.48;1.30;;;20.40;52.70;;;;;;4927779;29;20068;-54
2022/10/05 12:55:34;;;;;;;3.67;1.35;;;20.40;52.90;;;;;;4920651;29;20059;-51
2022/10/05 12:58:14;;;;;;;3.75;1.33;;;20.50;53.10;;;;;;4926954;29;20059;-52
2022/10/05 13:00:51;;;;;;;4.53;1.30;;;20.50;53.00;;;;;;4925919;29;20059;-51
2022/10/05 13:03:25;;;;;;;1.23;1.13;;;20.50;52.90;;;;;;4927190;29;20055;-51
2022/10/05 13:06:02;;;;;;;2.38;1.38;;;20.60;52.70;;;;;;4927385;29;20052;-51
2022/10/05 13:08:37;;;;;;;1.40;1.02;;;20.60;52.80;;;;;;4927812;29;20056;-52
2022/10/05 13:11:10;;;;;;;2.53;1.38;;;20.60;52.90;;;;;;4926812;29;20409;-50
2022/10/05 13:13:47;;;;;;;1.42;1.33;;;20.60;53.00;;;;;;4926602;29;20419;-51
2022/10/05 13:16:28;;;;;;;2.03;1.50;;;20.70;53.10;;;;;;4925801;29;20056;-48
2022/10/05 13:19:12;;;;;;;2.17;1.92;;;20.70;53.00;;;;;;4926584;29;20059;-51
2022/10/05 13:22:04;;;;;;;3.20;1.90;;;20.70;52.80;;;;;;4915267;29;20071;-52
2022/10/05 13:24:42;;;;;;;2.28;1.73;;;20.70;52.80;;;;;;4914450;29;20067;-52
2022/10/05 13:27:18;;;;;;;3.38;2.10;;;20.70;52.90;;;;;;4923727;29;20059;-49
2022/10/05 13:29:51;;;;;;;6.70;1.80;;;20.70;52.70;;;;;;4923590;29;20471;-50
2022/10/05 13:32:23;;;;;;;3.83;1.92;;;20.70;52.80;;;;;;4924563;29;20051;-51
2022/10/05 13:35:00;;;;;;;4.43;1.80;;;20.70;53.00;;;;;;4927059;29;20063;-50
2022/10/05 13:37:33;;;;;;;5.32;1.90;;;20.70;53.20;;;;;;4923666;29;20059;-52
2022/10/05 13:40:17;;;;;;;2.72;1.58;;;20.70;53.30;;;;;;4925585;29;20089;-53
2022/10/05 13:42:51;;;;;;;3.90;1.30;;;20.70;53.40;;;;;;4922425;29;20070;-50
2022/10/05 13:45:22;;;;;;;5.20;1.60;;;20.70;53.40;;;;;;4912379;29;20055;-53
2022/10/05 13:48:03;;;;;;;2.05;1.35;;;20.70;53.30;;;;;;4910832;29;20519;-53
2022/10/05 13:50:35;;;;;;;4.03;1.70;;;20.70;53.90;;;;;;4917295;29;20071;-52
2022/10/05 13:53:16;;;;;;;4.43;1.50;;;20.70;53.30;;;;;;4917996;29;20064;-54
2022/10/05 13:55:47;;;;;;;1.40;1.23;;;20.80;53.50;;;;;;4915547;29;20493;-53
2022/10/05 13:58:27;;;;;;;5.55;1.65;;;20.80;53.60;;;;;;4923327;29;20062;-51